createdAt,value
2022-12-08T00:01:15.555Z,18.10
2022-12-08T00:03:42.859Z,16.15
2022-12-08T00:06:50.310Z,18.35
2022-12-08T00:09:25.825Z,17.48
2022-12-08T00:11:56.116Z,18.98
2022-12-08T00:14:25.758Z,17.25
2022-12-08T00:16:53.232Z,16.45
2022-12-08T00:19:20.579Z,15.02
2022-12-08T00:21:47.587Z,16.13
2022-12-08T00:24:14.321Z,18.10
2022-12-08T00:26:41.110Z,17.65
2022-12-08T00:29:10.925Z,14.60
2022-12-08T00:31:41.437Z,17.73
2022-12-08T00:34:08.399Z,18.00
2022-12-08T00:36:35.293Z,14.55
2022-12-08T00:39:02.276Z,14.82
2022-12-08T00:41:47.690Z,15.93
2022-12-08T00:44:18.969Z,16.70
2022-12-08T00:46:46.679Z,17.65
2022-12-08T00:49:13.874Z,17.15
2022-12-08T00:51:40.904Z,14.32
2022-12-08T00:54:08.165Z,17.83
2022-12-08T00:56:35.448Z,15.10
2022-12-08T00:59:04.605Z,16.23
2022-12-08T01:01:32.059Z,12.85
2022-12-08T01:03:58.943Z,16.65
2022-12-08T01:06:25.655Z,15.18
2022-12-08T01:08:52.389Z,15.02
2022-12-08T01:11:19.811Z,12.15
2022-12-08T01:13:47.079Z,16.50
2022-12-08T01:16:22.403Z,18.17
2022-12-08T01:18:49.786Z,17.02
2022-12-08T01:21:17.679Z,13.93
2022-12-08T01:23:44.841Z,15.15
2022-12-08T01:26:14.692Z,16.92
2022-12-08T01:28:49.745Z,18.20
2022-12-08T01:31:18.937Z,16.20
2022-12-08T01:33:46.390Z,17.33
2022-12-08T01:36:19.269Z,16.90
2022-12-08T01:38:46.137Z,16.90
2022-12-08T01:41:16.985Z,21.70
2022-12-08T01:43:57.658Z,14.05
2022-12-08T01:46:25.433Z,17.27
2022-12-08T01:48:56.830Z,16.35
2022-12-08T01:51:23.843Z,17.80
2022-12-08T01:53:50.821Z,19.70
2022-12-08T01:56:29.559Z,15.45
2022-12-08T01:58:56.915Z,23.13
2022-12-08T02:01:23.841Z,18.77
2022-12-08T02:03:58.880Z,18.70
2022-12-08T02:06:28.504Z,17.33
2022-12-08T02:08:56.163Z,18.58
2022-12-08T02:11:23.195Z,18.00
2022-12-08T02:13:51.915Z,18.33
2022-12-08T02:16:36.962Z,20.40
2022-12-08T02:19:41.013Z,19.13
2022-12-08T02:22:42.975Z,17.52
2022-12-08T02:25:24.919Z,18.52
2022-12-08T02:28:07.522Z,16.55
2022-12-08T02:30:34.331Z,17.92
2022-12-08T02:33:03.952Z,17.35
2022-12-08T02:35:49.594Z,18.00
2022-12-08T02:38:53.683Z,18.67
2022-12-08T02:41:38.656Z,16.05
2022-12-08T02:44:17.151Z,16.67
2022-12-08T02:46:50.889Z,18.10
2022-12-08T02:49:17.679Z,14.25
2022-12-08T02:51:44.414Z,14.45
2022-12-08T02:54:11.847Z,16.55
2022-12-08T02:56:50.087Z,18.27
2022-12-08T02:59:50.731Z,17.02
2022-12-08T03:02:54.443Z,17.70
2022-12-08T03:05:39.264Z,13.57
2022-12-08T03:08:13.232Z,17.00
2022-12-08T03:11:10.567Z,18.60
2022-12-08T03:13:50.567Z,16.92
2022-12-08T03:16:22.817Z,18.58
2022-12-08T03:18:54.972Z,18.85
2022-12-08T03:21:22.992Z,18.77
2022-12-08T03:23:53.599Z,16.65
2022-12-08T03:26:31.125Z,18.85
2022-12-08T03:28:58.435Z,21.45
2022-12-08T03:31:28.897Z,20.33
2022-12-08T03:33:58.616Z,21.60
2022-12-08T03:36:26.552Z,20.17
2022-12-08T03:38:54.588Z,14.70
2022-12-08T03:41:22.570Z,17.52
2022-12-08T03:43:58.371Z,22.80
2022-12-08T03:48:53.205Z,17.35
2022-12-08T03:51:20.410Z,19.80
2022-12-08T03:53:47.574Z,19.10
2022-12-08T03:56:27.238Z,18.23
2022-12-08T03:58:54.891Z,18.27
2022-12-08T04:01:22.656Z,17.00
2022-12-08T04:03:49.944Z,16.88
2022-12-08T04:06:17.619Z,23.85
2022-12-08T04:08:44.450Z,19.20
2022-12-08T04:11:11.716Z,19.70
2022-12-08T04:13:40.148Z,19.30
2022-12-08T04:16:07.943Z,20.90
2022-12-08T04:18:35.820Z,18.38
2022-12-08T04:21:02.563Z,20.65
2022-12-08T04:23:29.261Z,18.70
2022-12-08T04:25:56.006Z,19.27
2022-12-08T04:28:22.955Z,18.23
2022-12-08T04:30:50.160Z,19.08
2022-12-08T04:33:17.565Z,19.70
2022-12-08T04:35:44.819Z,15.77
2022-12-08T04:38:12.055Z,19.90
2022-12-08T04:40:39.507Z,17.85
2022-12-08T04:43:06.561Z,22.67
2022-12-08T04:45:33.764Z,18.83
2022-12-08T04:48:01.746Z,18.65
2022-12-08T04:50:28.794Z,21.17
2022-12-08T04:52:55.519Z,20.15
2022-12-08T04:55:22.393Z,19.48
2022-12-08T04:57:49.221Z,18.20
2022-12-08T05:00:17.072Z,22.02
2022-12-08T05:02:43.962Z,21.73
2022-12-08T05:05:10.775Z,19.20
2022-12-08T05:07:37.963Z,21.92
2022-12-08T05:10:05.630Z,18.85
2022-12-08T05:12:33.196Z,20.02
2022-12-08T05:14:59.998Z,18.27
2022-12-08T05:17:26.764Z,21.90
2022-12-08T05:19:53.694Z,21.00
2022-12-08T05:22:20.430Z,20.02
2022-12-08T05:24:47.879Z,17.35
2022-12-08T05:27:15.052Z,19.38
2022-12-08T05:29:42.410Z,19.45
2022-12-08T05:32:09.337Z,21.08
2022-12-08T05:34:36.085Z,24.50
2022-12-08T05:37:02.830Z,17.45
2022-12-08T05:39:29.564Z,16.02
2022-12-08T05:41:56.317Z,20.90
2022-12-08T05:44:23.099Z,17.67
2022-12-08T05:46:49.886Z,16.48
2022-12-08T05:49:16.700Z,15.70
2022-12-08T05:51:43.748Z,18.55
2022-12-08T05:54:10.526Z,18.13
2022-12-08T05:56:37.263Z,18.15
2022-12-08T05:59:07.123Z,15.85
2022-12-08T06:01:34.310Z,18.65
2022-12-08T06:04:02.688Z,16.80
2022-12-08T06:06:30.603Z,18.75
2022-12-08T06:08:57.379Z,20.98
2022-12-08T06:11:26.473Z,17.40
2022-12-08T06:13:53.816Z,16.77
2022-12-08T06:16:20.554Z,20.45
2022-12-08T06:18:47.354Z,21.33
2022-12-08T06:21:16.063Z,15.50
2022-12-08T06:23:43.293Z,18.98
2022-12-08T06:26:13.965Z,18.92
2022-12-08T06:28:42.092Z,20.42
2022-12-08T06:31:11.978Z,17.42
2022-12-08T06:33:39.033Z,16.88
2022-12-08T06:36:07.018Z,23.15
2022-12-08T06:38:37.106Z,22.50
2022-12-08T06:41:06.808Z,20.92
2022-12-08T06:43:33.709Z,16.23
2022-12-08T06:46:01.469Z,20.27
2022-12-08T06:48:28.288Z,22.95
2022-12-08T06:50:55.074Z,19.70
2022-12-08T06:53:21.933Z,18.80
2022-12-08T06:56:01.110Z,15.73
2022-12-08T06:58:30.593Z,19.25
2022-12-08T07:00:57.497Z,16.65
2022-12-08T07:03:24.431Z,18.33
2022-12-08T07:06:00.245Z,15.57
2022-12-08T07:08:30.444Z,16.88
2022-12-08T07:10:57.281Z,16.42
2022-12-08T07:13:24.134Z,16.55
2022-12-08T07:15:50.945Z,18.40
2022-12-08T07:18:17.680Z,19.20
2022-12-08T07:20:44.427Z,16.73
2022-12-08T07:23:11.720Z,18.60
2022-12-08T07:25:38.448Z,14.90
2022-12-08T07:28:08.936Z,18.08
2022-12-08T07:30:35.958Z,14.57
2022-12-08T07:33:05.642Z,17.80
2022-12-08T07:35:34.837Z,19.25
2022-12-08T07:38:02.562Z,15.68
2022-12-08T07:40:29.425Z,14.10
2022-12-08T07:42:56.650Z,16.80
2022-12-08T07:45:29.796Z,15.35
2022-12-08T07:47:58.116Z,14.60
2022-12-08T07:50:24.945Z,13.68
2022-12-08T07:52:51.659Z,14.60
2022-12-08T07:55:18.436Z,16.70
2022-12-08T07:57:45.209Z,14.75
2022-12-08T08:00:12.680Z,16.05
2022-12-08T08:02:40.183Z,13.90
2022-12-08T08:05:07.643Z,14.82
2022-12-08T08:07:34.768Z,16.95
2022-12-08T08:10:01.815Z,16.10
2022-12-08T08:12:31.776Z,17.77
2022-12-08T08:15:00.214Z,17.90
2022-12-08T08:17:27.330Z,17.27
2022-12-08T08:19:54.341Z,17.15
2022-12-08T08:22:21.070Z,16.58
2022-12-08T08:24:47.884Z,17.33
2022-12-08T08:27:14.691Z,13.82
2022-12-08T08:29:41.459Z,14.65
2022-12-08T08:32:08.222Z,15.32
2022-12-08T08:34:36.367Z,17.92
2022-12-08T08:37:03.280Z,16.95
2022-12-08T08:39:31.873Z,19.05
2022-12-08T08:41:58.843Z,14.48
2022-12-08T08:44:25.673Z,17.40
2022-12-08T08:46:52.525Z,20.15
2022-12-08T08:49:20.082Z,15.02
2022-12-08T08:51:47.383Z,17.25
2022-12-08T08:54:14.248Z,16.55
2022-12-08T08:56:41.007Z,14.80
2022-12-08T08:59:08.158Z,17.83
2022-12-08T09:01:34.950Z,15.98
2022-12-08T09:04:01.893Z,17.92
2022-12-08T09:06:29.068Z,19.40
2022-12-08T09:08:56.156Z,17.52
2022-12-08T09:11:25.917Z,19.33
2022-12-08T09:13:54.034Z,20.75
2022-12-08T09:16:21.858Z,17.80
2022-12-08T09:18:49.563Z,18.02
2022-12-08T09:21:22.823Z,14.43
2022-12-08T09:23:50.941Z,15.80
2022-12-08T09:26:17.789Z,17.58
2022-12-08T09:28:46.727Z,17.23
2022-12-08T09:31:16.570Z,19.10
2022-12-08T09:33:45.765Z,18.25
2022-12-08T09:36:12.626Z,17.70
2022-12-08T09:38:40.477Z,18.52
2022-12-08T09:41:38.765Z,18.95
2022-12-08T09:44:32.862Z,19.30
2022-12-08T09:47:02.263Z,14.80
2022-12-08T09:49:42.718Z,16.60
2022-12-08T09:52:44.485Z,17.88
2022-12-08T09:55:23.641Z,17.73
2022-12-08T09:57:59.042Z,17.73
2022-12-08T10:00:25.896Z,20.50
2022-12-08T10:02:52.826Z,21.20
2022-12-08T10:05:21.349Z,20.48
2022-12-08T10:08:12.606Z,19.95
2022-12-08T10:11:00.092Z,16.80
2022-12-08T10:13:42.309Z,18.33
2022-12-08T10:16:24.182Z,18.50
2022-12-08T10:19:14.600Z,20.48
2022-12-08T10:21:42.020Z,18.80
2022-12-08T10:24:43.428Z,13.05
2022-12-08T10:27:13.464Z,17.73
2022-12-08T10:29:41.224Z,18.27
2022-12-08T10:32:19.247Z,19.15
2022-12-08T10:35:00.838Z,19.75
2022-12-08T10:37:27.657Z,18.05
2022-12-08T10:40:12.067Z,17.30
2022-12-08T10:42:52.335Z,18.75
2022-12-08T10:45:41.620Z,17.75
2022-12-08T10:48:19.142Z,24.55
2022-12-08T10:50:50.213Z,15.80
2022-12-08T10:53:32.069Z,17.23
2022-12-08T10:58:43.640Z,17.67
2022-12-08T11:03:43.921Z,19.70
2022-12-08T11:06:37.611Z,16.77
2022-12-08T11:09:17.812Z,16.83
2022-12-08T11:11:50.092Z,17.58
2022-12-08T11:14:22.870Z,20.88
2022-12-08T11:16:52.959Z,18.42
2022-12-08T11:19:21.084Z,17.33
2022-12-08T11:21:48.205Z,20.23
2022-12-08T11:24:14.884Z,21.38
2022-12-08T11:26:49.846Z,18.10
2022-12-08T11:29:17.494Z,18.17
2022-12-08T11:31:53.897Z,17.52
2022-12-08T11:34:37.248Z,21.45
2022-12-08T11:37:16.807Z,16.60
2022-12-08T11:39:49.531Z,18.30
2022-12-08T11:42:20.575Z,17.70
2022-12-08T11:45:07.764Z,20.98
2022-12-08T11:47:42.572Z,14.50
2022-12-08T11:50:24.247Z,16.85
2022-12-08T11:52:51.889Z,16.73
2022-12-08T11:55:42.698Z,16.98
2022-12-08T11:58:15.090Z,19.83
2022-12-08T12:00:41.921Z,18.60
2022-12-08T12:03:35.893Z,15.25
2022-12-08T12:06:46.411Z,20.25
2022-12-08T12:09:08.208Z,18.83
2022-12-08T12:12:05.916Z,19.50
2022-12-08T12:15:00.034Z,21.30
2022-12-08T12:17:41.004Z,19.23
2022-12-08T12:20:30.790Z,18.20
2022-12-08T12:23:35.835Z,23.08
2022-12-08T12:26:07.143Z,22.50
2022-12-08T12:28:46.412Z,17.95
2022-12-08T12:31:17.295Z,18.50
2022-12-08T12:33:46.817Z,20.33
2022-12-08T12:36:15.036Z,22.02
2022-12-08T12:39:01.333Z,20.98
2022-12-08T12:41:44.176Z,19.80
2022-12-08T12:44:13.763Z,23.38
2022-12-08T12:46:46.522Z,19.88
2022-12-08T12:49:39.379Z,19.05
2022-12-08T12:52:15.357Z,15.70
2022-12-08T12:54:43.834Z,19.30
2022-12-08T12:57:10.510Z,19.58
2022-12-08T12:59:55.931Z,18.45
2022-12-08T13:02:27.558Z,19.70
2022-12-08T13:04:58.531Z,19.30
2022-12-08T13:07:50.912Z,20.85
2022-12-08T13:10:30.024Z,18.77
2022-12-08T13:13:16.382Z,19.02
2022-12-08T13:16:15.425Z,19.52
2022-12-08T13:18:49.776Z,21.38
2022-12-08T13:21:20.031Z,18.92
2022-12-08T13:23:48.487Z,18.95
2022-12-08T13:26:23.644Z,19.95
2022-12-08T13:28:59.911Z,18.98
2022-12-08T13:31:50.901Z,18.10
2022-12-08T13:34:25.924Z,19.73
2022-12-08T13:36:55.651Z,20.05
2022-12-08T13:39:32.473Z,18.20
2022-12-08T13:42:05.807Z,18.50
2022-12-08T13:45:21.274Z,21.75
2022-12-08T13:57:03.949Z,21.70
2022-12-08T13:59:34.963Z,18.67
2022-12-08T14:02:18.197Z,18.73
2022-12-08T14:05:17.054Z,21.35
2022-12-08T14:07:34.626Z,19.40
2022-12-08T14:10:03.817Z,22.33
2022-12-08T14:12:31.570Z,22.67
2022-12-08T14:15:03.705Z,23.83
2022-12-08T14:17:32.003Z,24.30
2022-12-08T14:20:33.805Z,22.25
2022-12-08T14:23:09.343Z,21.05
2022-12-08T14:25:36.544Z,18.33
2022-12-08T14:28:05.049Z,22.83
2022-12-08T14:30:33.349Z,22.13
2022-12-08T14:33:03.389Z,24.63
2022-12-08T14:35:33.834Z,23.17
2022-12-08T14:38:03.568Z,19.95
2022-12-08T14:40:45.159Z,22.92
2022-12-08T14:43:16.545Z,21.13
2022-12-08T14:45:43.242Z,19.45
2022-12-08T14:48:36.367Z,19.67
2022-12-08T14:51:06.404Z,24.75
2022-12-08T14:53:36.639Z,25.42
2022-12-08T14:56:08.833Z,28.08
2022-12-08T14:58:35.611Z,21.52
2022-12-08T15:01:05.282Z,22.90
2022-12-08T15:03:32.903Z,20.55
2022-12-08T15:06:08.491Z,20.33
2022-12-08T15:08:51.418Z,25.27
2022-12-08T15:11:18.104Z,24.45
2022-12-08T15:13:46.944Z,23.48
2022-12-08T15:16:40.740Z,22.40
2022-12-08T15:19:28.421Z,24.33
2022-12-08T15:22:08.865Z,27.10
2022-12-08T15:24:35.776Z,22.33
2022-12-08T15:27:03.973Z,22.67
2022-12-08T15:29:31.247Z,26.35
2022-12-08T15:32:00.938Z,26.00
2022-12-08T15:34:27.936Z,24.02
2022-12-08T15:36:55.501Z,25.05
2022-12-08T15:39:30.503Z,26.73
2022-12-08T15:41:57.871Z,25.85
2022-12-08T15:44:24.689Z,24.40
2022-12-08T15:46:53.278Z,24.60
2022-12-08T15:49:22.353Z,25.25
2022-12-08T15:51:50.024Z,23.90
2022-12-08T15:54:17.162Z,26.17
2022-12-08T15:57:18.151Z,23.13
2022-12-08T15:59:40.136Z,24.83
2022-12-08T16:02:07.023Z,22.77
2022-12-08T16:07:27.577Z,24.45
2022-12-08T16:09:55.348Z,26.08
2022-12-08T16:13:48.109Z,23.50
2022-12-08T16:18:27.236Z,27.63
2022-12-08T16:21:22.732Z,25.45
2022-12-08T16:23:43.619Z,26.70
2022-12-08T16:26:28.604Z,26.02
2022-12-08T16:29:04.337Z,25.10
2022-12-08T16:31:31.884Z,23.38
2022-12-08T16:33:58.804Z,25.50
2022-12-08T16:36:25.688Z,27.83
2022-12-08T16:38:52.586Z,27.55
2022-12-08T16:41:38.168Z,25.45
2022-12-08T16:44:06.545Z,27.17
2022-12-08T16:46:34.897Z,28.65
2022-12-08T16:49:04.940Z,21.83
2022-12-08T16:51:31.720Z,26.35
2022-12-08T16:53:58.694Z,28.02
2022-12-08T16:56:32.795Z,27.42
2022-12-08T16:59:01.848Z,26.35
2022-12-08T17:01:28.765Z,26.05
2022-12-08T17:04:22.983Z,26.45
2022-12-08T17:06:42.502Z,30.17
2022-12-08T17:09:09.339Z,26.55
2022-12-08T17:11:42.708Z,24.15
2022-12-08T17:14:11.717Z,27.70
2022-12-08T17:16:38.704Z,29.98
2022-12-08T17:19:05.596Z,37.10
2022-12-08T17:21:32.377Z,28.02
2022-12-08T17:23:59.209Z,28.30
2022-12-08T17:26:26.030Z,33.30
2022-12-08T17:29:00.582Z,29.63
2022-12-08T17:31:30.271Z,33.83
2022-12-08T17:34:02.960Z,32.90
2022-12-08T17:36:30.120Z,27.25
2022-12-08T17:38:59.064Z,28.60
2022-12-08T17:41:25.940Z,28.67
2022-12-08T17:43:52.889Z,26.40
2022-12-08T17:46:20.755Z,29.02
2022-12-08T17:48:48.027Z,28.17
2022-12-08T17:51:15.560Z,29.77
2022-12-08T17:53:42.468Z,30.08
2022-12-08T17:56:18.395Z,31.88
2022-12-08T17:58:47.551Z,30.20
2022-12-08T18:01:18.021Z,29.58
2022-12-08T18:03:44.792Z,30.75
2022-12-08T18:06:12.611Z,26.75
2022-12-08T18:08:40.280Z,26.50
2022-12-08T18:11:13.094Z,30.88
2022-12-08T18:13:40.064Z,29.35
2022-12-08T18:16:07.042Z,36.72
2022-12-08T18:18:33.783Z,33.28
2022-12-08T18:21:00.618Z,30.33
2022-12-08T18:23:27.578Z,35.45
2022-12-08T18:25:54.488Z,34.13
2022-12-08T18:28:21.350Z,30.40
2022-12-08T18:30:48.157Z,29.85
2022-12-08T18:33:14.966Z,34.45
2022-12-08T18:35:41.769Z,27.83
2022-12-08T18:38:08.536Z,36.78
2022-12-08T18:40:35.396Z,30.30
2022-12-08T18:43:02.177Z,35.90
2022-12-08T18:45:28.929Z,31.77
2022-12-08T18:47:58.377Z,37.05
2022-12-08T18:50:25.196Z,33.90
2022-12-08T18:52:52.046Z,35.10
2022-12-08T18:55:18.819Z,33.85
2022-12-08T18:57:46.115Z,35.65
2022-12-08T19:00:18.285Z,36.83
2022-12-08T19:02:45.443Z,32.60
2022-12-08T19:05:13.951Z,33.17
2022-12-08T19:07:42.725Z,35.75
2022-12-08T19:10:10.591Z,35.70
2022-12-08T19:12:37.501Z,36.05
2022-12-08T19:15:05.425Z,35.78
2022-12-08T19:17:32.535Z,36.35
2022-12-08T19:19:59.600Z,37.13
2022-12-08T19:22:26.446Z,32.63
2022-12-08T19:24:53.480Z,29.67
2022-12-08T19:27:20.387Z,36.15
2022-12-08T19:29:47.338Z,31.95
2022-12-08T19:32:14.323Z,30.48
2022-12-08T19:34:41.420Z,33.78
2022-12-08T19:37:10.352Z,41.28
2022-12-08T19:39:55.449Z,33.38
2022-12-08T19:42:40.681Z,38.33
2022-12-08T19:45:19.939Z,38.88
2022-12-08T19:47:47.817Z,41.65
2022-12-08T19:50:34.922Z,38.83
2022-12-08T19:53:04.425Z,38.55
2022-12-08T19:55:31.739Z,37.35
2022-12-08T19:57:58.534Z,34.33
2022-12-08T20:00:25.911Z,36.30
2022-12-08T20:02:52.784Z,37.47
2022-12-08T20:05:19.716Z,39.35
2022-12-08T20:07:46.751Z,44.42
2022-12-08T20:10:19.943Z,37.22
2022-12-08T20:12:46.694Z,37.92
2022-12-08T20:15:14.888Z,42.03
2022-12-08T20:17:43.359Z,39.13
2022-12-08T20:20:12.210Z,36.33
2022-12-08T20:22:39.122Z,41.60
2022-12-08T20:25:06.317Z,41.35
2022-12-08T20:27:33.556Z,39.42
2022-12-08T20:30:00.466Z,39.92
2022-12-08T20:32:27.465Z,41.20
2022-12-08T20:34:54.143Z,41.25
2022-12-08T20:37:21.050Z,38.78
2022-12-08T20:39:47.851Z,40.17
2022-12-08T20:42:14.732Z,37.47
2022-12-08T20:44:44.377Z,39.95
2022-12-08T20:47:13.010Z,48.13
2022-12-08T20:49:40.019Z,40.95
2022-12-08T20:52:07.688Z,39.72
2022-12-08T20:54:35.236Z,40.45
2022-12-08T20:57:02.114Z,39.92
2022-12-08T20:59:29.189Z,43.20
2022-12-08T21:01:56.374Z,40.28
2022-12-08T21:04:24.028Z,37.90
2022-12-08T21:06:51.242Z,40.90
2022-12-08T21:09:18.571Z,41.30
2022-12-08T21:11:45.804Z,40.70
2022-12-08T21:14:12.638Z,44.55
2022-12-08T21:16:39.726Z,45.00
2022-12-08T21:19:06.728Z,42.97
2022-12-08T21:21:33.911Z,45.40
2022-12-08T21:24:01.212Z,38.25
2022-12-08T21:26:28.788Z,45.17
2022-12-08T21:28:58.947Z,63.08
2022-12-08T21:31:27.041Z,65.10
2022-12-08T21:33:55.247Z,69.07
2022-12-08T21:36:22.919Z,84.38
2022-12-08T21:38:50.345Z,81.85
2022-12-08T21:41:39.950Z,114.72
2022-12-08T21:44:09.912Z,106.55
2022-12-08T21:46:36.870Z,104.00
2022-12-08T21:49:04.462Z,137.55
2022-12-08T21:51:31.440Z,177.70
2022-12-08T21:53:58.336Z,143.48
2022-12-08T21:56:25.217Z,165.20
2022-12-08T21:58:52.290Z,134.45
2022-12-08T22:01:20.570Z,123.57
2022-12-08T22:03:47.549Z,107.55
2022-12-08T22:06:14.864Z,99.50
2022-12-08T22:08:42.314Z,82.80
2022-12-08T22:11:10.695Z,66.80
2022-12-08T22:13:40.137Z,48.80
2022-12-08T22:16:10.567Z,52.78
2022-12-08T22:18:37.699Z,52.90
2022-12-08T22:21:18.025Z,48.05
2022-12-08T22:23:45.292Z,43.10
2022-12-08T22:26:12.701Z,37.88
2022-12-08T22:28:41.588Z,39.08
2022-12-08T22:31:21.088Z,38.58
2022-12-08T22:33:49.418Z,36.75
2022-12-08T22:36:19.519Z,40.55
2022-12-08T22:38:46.905Z,40.75
2022-12-08T22:41:14.395Z,39.42
2022-12-08T22:43:41.560Z,40.22
2022-12-08T22:46:16.604Z,37.20
2022-12-08T22:48:43.881Z,40.03
2022-12-08T22:51:11.322Z,39.47
2022-12-08T22:53:38.289Z,39.67
2022-12-08T22:56:06.619Z,37.95
2022-12-08T22:58:34.303Z,40.75
2022-12-08T23:01:01.030Z,38.58
2022-12-08T23:03:28.010Z,40.47
2022-12-08T23:05:54.889Z,39.10
2022-12-08T23:08:21.922Z,42.50
2022-12-08T23:10:51.934Z,41.40
2022-12-08T23:13:19.627Z,38.03
2022-12-08T23:15:46.449Z,37.03
2022-12-08T23:18:19.301Z,35.20
2022-12-08T23:20:47.588Z,41.50
2022-12-08T23:23:15.472Z,44.17
2022-12-08T23:25:43.358Z,41.85
2022-12-08T23:28:11.374Z,37.60
2022-12-08T23:30:41.386Z,41.35
2022-12-08T23:33:08.432Z,37.72
2022-12-08T23:35:35.379Z,38.67
2022-12-08T23:38:02.502Z,38.15
2022-12-08T23:40:29.352Z,39.75
2022-12-08T23:42:56.047Z,42.92
2022-12-08T23:45:22.783Z,40.42
2022-12-08T23:47:49.613Z,35.65
2022-12-08T23:50:16.517Z,40.63
2022-12-08T23:52:43.596Z,41.90
2022-12-08T23:55:11.173Z,39.00
2022-12-08T23:57:38.613Z,40.70
